Aeroporto :
LOGIN :

Iscrizione | Disclaimer

   EN    FR    IT 

 










Sommario :    VFR   VFR Marginale   IFR   IFR Intensivo   IFR Molto Intensivo
Visibilità : 
Base nubi : 
>= 8 km
>= 3000ft
5 / 8 km
1000 / 3000 ft
1500m / 5 km
500 / 1000 ft
800 / 1500m
200 / 500 ft
< 800m
< 200 ft
Simboli :   Temporali  Nebbia  Neve Forte  Precipitazioni Forti  Vento > 20 kt
SIGMETs :   Varie  Temporali  Ghiacco  Turbolenza  Onda orograficha  Ceneri Vulcaniche






- Altitudine del aeroporto : 194 ft
- Codice IATA : LME


LFRM - Le Mans

ULTIMO METAR :
  • 171730Z AUTO 25010G26KT 210V280 9999 FEW049 SCT100 10/02 Q1023 TEMPO 4000 SHRA SCT020CB

METARs OBSOLETI :
  • 171700Z AUTO 28009KT 230V310 9999 FEW039/// SCT066/// ///CB 10/03 Q1022 TEMPO 25015G35KT 4000 SHRA
  • 171630Z AUTO 24009KT 200V290 9999 FEW047/// SCT060/// BKN072/// ///TCU 11/03 Q1022 TEMPO 25015G35KT 4000 SHRA SCT020CB
  • 171600Z AUTO 24010KT 200V280 9999 BKN046 BKN052 12/03 Q1021 TEMPO 25015G35KT 4000 SHRA SCT020CB
  • 171530Z AUTO 26010G23KT 220V290 9999 FEW042 12/02 Q1021 TEMPO 25015G35KT 4000 SHRA SCT020CB
  • 171500Z AUTO 25014G29KT 210V300 9999 SCT046 BKN056 BKN074 12/03 Q1021 TEMPO 4000 SHRA SCT020CB

TAF TAF LFRM
Valido dal 17 a 12 ore il 18 a 12 ore UTC


171100Z 1712/1812 25012KT 9999 BKN030
TEMPO 1712/1721 4000 SHRA SCT020CB
TEMPO 1712/1718 25015G35KT



MetMap, La meteo Aeronautica in un colpo d'occhio ! - Copyright ORBIFLY Dicembre 2007 - Disclaimer

ORBIFLY MET'MAP TEAM :

Programmazione e sviluppo : Alexandra Zaïnal
Concezione : Baudouin d'Aumeries
Aiuto per la programmazione : Marc-Olivier Méhu
Supporto tecnico e logistico : Manuel Goepfert
Aiuto per la traduzione : Arnaldo La Scala

Contatto : metmap@orbifly.com




FONTI E CREDITI :

   NOAA